sensor_id;sensor_type;location;lat;lon;timestamp;pressure;altitude;pressure_sealevel;temperature;humidity
39491;BME280;25175;50.140;18.990;2023-04-09T00:02:16;99155.00;;;6.95;62.96
39491;BME280;25175;50.140;18.990;2023-04-09T00:05:21;99159.38;;;6.94;62.88
39491;BME280;25175;50.140;18.990;2023-04-09T00:08:26;99148.31;;;6.92;62.83
39491;BME280;25175;50.140;18.990;2023-04-09T00:11:31;99146.84;;;6.90;62.95
39491;BME280;25175;50.140;18.990;2023-04-09T00:14:39;99134.66;;;6.82;63.01
39491;BME280;25175;50.140;18.990;2023-04-09T00:17:44;99141.16;;;6.86;62.92
39491;BME280;25175;50.140;18.990;2023-04-09T00:20:49;99154.38;;;6.85;62.78
39491;BME280;25175;50.140;18.990;2023-04-09T00:23:53;99156.31;;;6.83;63.01
39491;BME280;25175;50.140;18.990;2023-04-09T00:26:58;99145.25;;;6.81;63.14
39491;BME280;25175;50.140;18.990;2023-04-09T00:30:07;99157.81;;;6.77;63.22
39491;BME280;25175;50.140;18.990;2023-04-09T00:33:13;99150.13;;;6.76;63.35
39491;BME280;25175;50.140;18.990;2023-04-09T00:36:17;99149.19;;;6.69;62.56
39491;BME280;25175;50.140;18.990;2023-04-09T00:39:23;99156.84;;;6.70;62.70
39491;BME280;25175;50.140;18.990;2023-04-09T00:42:30;99168.44;;;6.68;62.79
39491;BME280;25175;50.140;18.990;2023-04-09T00:45:39;99160.59;;;6.68;62.67
39491;BME280;25175;50.140;18.990;2023-04-09T00:48:44;99172.66;;;6.69;62.63
39491;BME280;25175;50.140;18.990;2023-04-09T00:51:49;99158.78;;;6.68;62.82
39491;BME280;25175;50.140;18.990;2023-04-09T00:54:56;99158.66;;;6.62;62.73
39491;BME280;25175;50.140;18.990;2023-04-09T00:58:04;99173.00;;;6.58;62.71
39491;BME280;25175;50.140;18.990;2023-04-09T01:01:12;99174.34;;;6.46;63.32
39491;BME280;25175;50.140;18.990;2023-04-09T01:04:18;99164.25;;;6.35;63.62
39491;BME280;25175;50.140;18.990;2023-04-09T01:07:34;99170.75;;;6.31;63.71
39491;BME280;25175;50.140;18.990;2023-04-09T01:11:01;99172.41;;;6.24;63.77
39491;BME280;25175;50.140;18.990;2023-04-09T01:14:19;99172.56;;;6.14;64.04
39491;BME280;25175;50.140;18.990;2023-04-09T01:17:39;99166.50;;;6.06;64.40
39491;BME280;25175;50.140;18.990;2023-04-09T01:20:57;99165.22;;;6.02;64.80
39491;BME280;25175;50.140;18.990;2023-04-09T01:24:18;99163.91;;;5.98;64.71
39491;BME280;25175;50.140;18.990;2023-04-09T01:27:41;99169.13;;;5.98;64.82
39491;BME280;25175;50.140;18.990;2023-04-09T01:30:58;99162.94;;;5.99;64.69
39491;BME280;25175;50.140;18.990;2023-04-09T01:34:08;99179.38;;;6.07;64.39
39491;BME280;25175;50.140;18.990;2023-04-09T01:37:17;99184.13;;;6.12;63.89
39491;BME280;25175;50.140;18.990;2023-04-09T01:40:24;99176.78;;;6.15;63.75
39491;BME280;25175;50.140;18.990;2023-04-09T01:43:30;99174.69;;;6.19;63.44
39491;BME280;25175;50.140;18.990;2023-04-09T01:46:41;99165.88;;;6.12;63.70
39491;BME280;25175;50.140;18.990;2023-04-09T01:49:45;99178.09;;;6.03;64.16
39491;BME280;25175;50.140;18.990;2023-04-09T01:52:52;99172.38;;;6.00;64.44
39491;BME280;25175;50.140;18.990;2023-04-09T01:55:58;99169.44;;;5.95;64.67
39491;BME280;25175;50.140;18.990;2023-04-09T01:59:04;99169.44;;;5.87;64.80
39491;BME280;25175;50.140;18.990;2023-04-09T02:02:17;99166.19;;;5.93;64.66
39491;BME280;25175;50.140;18.990;2023-04-09T02:05:35;99165.22;;;5.86;64.97
39491;BME280;25175;50.140;18.990;2023-04-09T02:08:46;99181.00;;;5.84;65.47
39491;BME280;25175;50.140;18.990;2023-04-09T02:11:53;99173.00;;;5.78;65.68
39491;BME280;25175;50.140;18.990;2023-04-09T02:15:02;99174.31;;;5.74;65.68
39491;BME280;25175;50.140;18.990;2023-04-09T02:18:23;99170.66;;;5.59;65.74
39491;BME280;25175;50.140;18.990;2023-04-09T02:21:28;99173.16;;;5.68;65.75
39491;BME280;25175;50.140;18.990;2023-04-09T02:24:34;99171.03;;;5.64;65.86
39491;BME280;25175;50.140;18.990;2023-04-09T02:27:40;99161.53;;;5.55;65.88
39491;BME280;25175;50.140;18.990;2023-04-09T02:30:45;99163.00;;;5.57;65.89
39491;BME280;25175;50.140;18.990;2023-04-09T02:33:52;99163.00;;;5.57;65.97
39491;BME280;25175;50.140;18.990;2023-04-09T02:36:58;99172.78;;;5.63;66.05
39491;BME280;25175;50.140;18.990;2023-04-09T02:40:03;99167.94;;;5.68;65.89
39491;BME280;25175;50.140;18.990;2023-04-09T02:43:09;99156.25;;;5.72;65.35
39491;BME280;25175;50.140;18.990;2023-04-09T02:46:13;99164.56;;;5.84;65.33
39491;BME280;25175;50.140;18.990;2023-04-09T02:49:21;99175.47;;;5.87;64.69
39491;BME280;25175;50.140;18.990;2023-04-09T02:52:26;99175.16;;;5.82;64.72
39491;BME280;25175;50.140;18.990;2023-04-09T02:55:31;99138.78;;;5.57;64.94
39491;BME280;25175;50.140;18.990;2023-04-09T02:58:35;99173.00;;;5.78;64.99
39491;BME280;25175;50.140;18.990;2023-04-09T03:01:41;99167.50;;;5.73;64.99
39491;BME280;25175;50.140;18.990;2023-04-09T03:04:48;99175.25;;;5.65;65.30
39491;BME280;25175;50.140;18.990;2023-04-09T03:07:53;99170.50;;;5.60;65.72
39491;BME280;25175;50.140;18.990;2023-04-09T03:10:58;99165.13;;;5.54;65.59
39491;BME280;25175;50.140;18.990;2023-04-09T03:14:04;99164.13;;;5.47;65.98
39491;BME280;25175;50.140;18.990;2023-04-09T03:17:08;99174.19;;;5.42;66.07
39491;BME280;25175;50.140;18.990;2023-04-09T03:20:17;99171.75;;;5.40;66.29
39491;BME280;25175;50.140;18.990;2023-04-09T03:23:21;99172.72;;;5.39;66.43
39491;BME280;25175;50.140;18.990;2023-04-09T03:26:27;99174.50;;;5.39;66.74
39491;BME280;25175;50.140;18.990;2023-04-09T03:29:37;99178.75;;;5.40;66.58
39491;BME280;25175;50.140;18.990;2023-04-09T03:32:43;99173.56;;;5.40;66.92
39491;BME280;25175;50.140;18.990;2023-04-09T03:35:51;99169.84;;;5.50;66.87
39491;BME280;25175;50.140;18.990;2023-04-09T03:39:12;99172.13;;;5.61;66.36
39491;BME280;25175;50.140;18.990;2023-04-09T03:42:18;99146.41;;;5.50;65.78
39491;BME280;25175;50.140;18.990;2023-04-09T03:45:24;99167.91;;;5.60;66.13
39491;BME280;25175;50.140;18.990;2023-04-09T03:48:37;99170.50;;;5.60;66.29
39491;BME280;25175;50.140;18.990;2023-04-09T03:51:44;99175.91;;;5.67;66.35
39491;BME280;25175;50.140;18.990;2023-04-09T03:54:50;99175.13;;;5.74;66.03
39491;BME280;25175;50.140;18.990;2023-04-09T03:57:58;99176.91;;;5.82;65.67
39491;BME280;25175;50.140;18.990;2023-04-09T04:01:06;99181.81;;;5.85;65.57
39491;BME280;25175;50.140;18.990;2023-04-09T04:04:16;99183.78;;;5.91;65.12
39491;BME280;25175;50.140;18.990;2023-04-09T04:07:28;99183.44;;;5.94;65.11
39491;BME280;25175;50.140;18.990;2023-04-09T04:10:38;99174.97;;;5.92;64.97
39491;BME280;25175;50.140;18.990;2023-04-09T04:13:44;99179.72;;;5.88;65.19
39491;BME280;25175;50.140;18.990;2023-04-09T04:16:49;99175.13;;;5.90;65.36
39491;BME280;25175;50.140;18.990;2023-04-09T04:19:57;99175.47;;;5.95;65.25
39491;BME280;25175;50.140;18.990;2023-04-09T04:23:05;99184.75;;;5.98;65.13
39491;BME280;25175;50.140;18.990;2023-04-09T04:26:14;99189.31;;;6.04;65.01
39491;BME280;25175;50.140;18.990;2023-04-09T04:29:19;99189.81;;;6.07;64.67
39491;BME280;25175;50.140;18.990;2023-04-09T04:32:33;99188.19;;;6.06;64.76
39491;BME280;25175;50.140;18.990;2023-04-09T04:35:43;99192.91;;;6.03;64.72
39491;BME280;25175;50.140;18.990;2023-04-09T04:39:07;99190.94;;;6.05;64.98
39491;BME280;25175;50.140;18.990;2023-04-09T04:42:38;99194.84;;;6.09;65.03
39491;BME280;25175;50.140;18.990;2023-04-09T04:45:47;99197.16;;;6.12;64.97
39491;BME280;25175;50.140;18.990;2023-04-09T04:48:53;99074.00;;;5.38;64.88
39491;BME280;25175;50.140;18.990;2023-04-09T04:51:58;99192.09;;;6.18;65.04
39491;BME280;25175;50.140;18.990;2023-04-09T04:55:07;99212.47;;;6.23;65.01
39491;BME280;25175;50.140;18.990;2023-04-09T04:58:11;99199.75;;;6.20;64.92
39491;BME280;25175;50.140;18.990;2023-04-09T05:01:24;99205.44;;;6.23;65.13
39491;BME280;25175;50.140;18.990;2023-04-09T05:04:29;99189.31;;;6.20;65.17
39491;BME280;25175;50.140;18.990;2023-04-09T05:07:35;99195.69;;;6.25;65.08
39491;BME280;25175;50.140;18.990;2023-04-09T05:10:43;99192.91;;;6.27;65.32
39491;BME280;25175;50.140;18.990;2023-04-09T05:13:48;99200.06;;;6.25;65.41
39491;BME280;25175;50.140;18.990;2023-04-09T05:16:55;99189.81;;;6.23;65.21
39491;BME280;25175;50.140;18.990;2023-04-09T05:20:06;99209.34;;;6.35;65.28
39491;BME280;25175;50.140;18.990;2023-04-09T05:23:25;99213.13;;;6.41;65.25
39491;BME280;25175;50.140;18.990;2023-04-09T05:26:33;99188.84;;;6.32;65.42
39491;BME280;25175;50.140;18.990;2023-04-09T05:29:37;99219.63;;;6.45;65.39
39491;BME280;25175;50.140;18.990;2023-04-09T05:32:44;99215.06;;;6.47;65.38
39491;BME280;25175;50.140;18.990;2023-04-09T05:35:50;99213.91;;;6.49;65.38
39491;BME280;25175;50.140;18.990;2023-04-09T05:38:55;99217.50;;;6.48;65.24
39491;BME280;25175;50.140;18.990;2023-04-09T05:42:02;99214.88;;;6.40;65.30
39491;BME280;25175;50.140;18.990;2023-04-09T05:45:12;99215.56;;;6.42;65.79
39491;BME280;25175;50.140;18.990;2023-04-09T05:48:23;99214.72;;;6.42;65.59
39491;BME280;25175;50.140;18.990;2023-04-09T05:51:29;99201.88;;;6.32;65.93
39491;BME280;25175;50.140;18.990;2023-04-09T05:54:34;99226.97;;;6.49;65.75
39491;BME280;25175;50.140;18.990;2023-04-09T05:57:45;99225.00;;;6.51;65.69
39491;BME280;25175;50.140;18.990;2023-04-09T06:00:49;99230.69;;;6.55;65.21
39491;BME280;25175;50.140;18.990;2023-04-09T06:03:55;99219.63;;;6.53;65.74
39491;BME280;25175;50.140;18.990;2023-04-09T06:06:59;99224.81;;;6.61;65.76
39491;BME280;25175;50.140;18.990;2023-04-09T06:10:06;99224.34;;;6.65;65.52
39491;BME280;25175;50.140;18.990;2023-04-09T06:13:14;99220.25;;;6.63;65.30
39491;BME280;25175;50.140;18.990;2023-04-09T06:16:19;99235.75;;;6.64;65.43
39491;BME280;25175;50.140;18.990;2023-04-09T06:19:24;99241.28;;;6.61;65.69
39491;BME280;25175;50.140;18.990;2023-04-09T06:22:29;99239.97;;;6.65;65.65
39491;BME280;25175;50.140;18.990;2023-04-09T06:25:34;99231.66;;;6.70;65.43
39491;BME280;25175;50.140;18.990;2023-04-09T06:28:42;99235.56;;;6.74;65.18
39491;BME280;25175;50.140;18.990;2023-04-09T06:31:46;99102.69;;;5.94;64.96
39491;BME280;25175;50.140;18.990;2023-04-09T06:34:51;99234.56;;;6.83;64.97
39491;BME280;25175;50.140;18.990;2023-04-09T06:37:56;99234.88;;;6.88;65.40
39491;BME280;25175;50.140;18.990;2023-04-09T06:41:01;99242.22;;;6.92;65.31
39491;BME280;25175;50.140;18.990;2023-04-09T06:44:11;99242.72;;;6.96;65.03
39491;BME280;25175;50.140;18.990;2023-04-09T06:47:16;99250.19;;;6.99;64.69
39491;BME280;25175;50.140;18.990;2023-04-09T06:50:20;99252.31;;;7.03;64.35
39491;BME280;25175;50.140;18.990;2023-04-09T06:53:26;99241.88;;;7.03;64.11
39491;BME280;25175;50.140;18.990;2023-04-09T06:56:30;99242.34;;;7.07;64.12
39491;BME280;25175;50.140;18.990;2023-04-09T06:59:38;99251.50;;;7.11;63.91
39491;BME280;25175;50.140;18.990;2023-04-09T07:02:42;99245.75;;;7.15;64.36
39491;BME280;25175;50.140;18.990;2023-04-09T07:05:48;99242.31;;;7.15;63.83
39491;BME280;25175;50.140;18.990;2023-04-09T07:08:52;99248.56;;;7.22;63.58
39491;BME280;25175;50.140;18.990;2023-04-09T07:11:57;99249.50;;;7.21;63.50
39491;BME280;25175;50.140;18.990;2023-04-09T07:15:06;99101.19;;;6.39;63.71
39491;BME280;25175;50.140;18.990;2023-04-09T07:18:11;99263.50;;;7.36;63.34
39491;BME280;25175;50.140;18.990;2023-04-09T07:21:16;99232.22;;;7.28;63.62
39491;BME280;25175;50.140;18.990;2023-04-09T07:24:21;99254.81;;;7.43;62.63
39491;BME280;25175;50.140;18.990;2023-04-09T07:27:26;99253.03;;;7.44;62.63
39491;BME280;25175;50.140;18.990;2023-04-09T07:30:35;99260.06;;;7.43;62.90
39491;BME280;25175;50.140;18.990;2023-04-09T07:33:39;99261.38;;;7.39;62.34
39491;BME280;25175;50.140;18.990;2023-04-09T07:36:44;99257.66;;;7.34;62.26
39491;BME280;25175;50.140;18.990;2023-04-09T07:39:49;99256.34;;;7.30;62.41
39491;BME280;25175;50.140;18.990;2023-04-09T07:42:55;99258.94;;;7.30;63.11
39491;BME280;25175;50.140;18.990;2023-04-09T07:46:02;99248.66;;;7.36;63.24
39491;BME280;25175;50.140;18.990;2023-04-09T07:49:07;99114.03;;;6.57;63.12
39491;BME280;25175;50.140;18.990;2023-04-09T07:52:11;99253.03;;;7.44;63.22
39491;BME280;25175;50.140;18.990;2023-04-09T07:55:17;99256.94;;;7.48;63.35
39491;BME280;25175;50.140;18.990;2023-04-09T07:58:21;99250.91;;;7.47;63.50
39491;BME280;25175;50.140;18.990;2023-04-09T08:01:29;99261.16;;;7.57;63.64
39491;BME280;25175;50.140;18.990;2023-04-09T08:04:33;99258.00;;;7.61;63.94
39491;BME280;25175;50.140;18.990;2023-04-09T08:07:38;99254.09;;;7.65;63.68
39491;BME280;25175;50.140;18.990;2023-04-09T08:10:43;99256.66;;;7.73;63.52
39491;BME280;25175;50.140;18.990;2023-04-09T08:13:49;99227.19;;;7.57;63.13
39491;BME280;25175;50.140;18.990;2023-04-09T08:16:55;99266.22;;;7.89;63.96
39491;BME280;25175;50.140;18.990;2023-04-09T08:20:01;99238.19;;;7.75;62.96
39491;BME280;25175;50.140;18.990;2023-04-09T08:23:07;99265.22;;;7.90;62.02
39491;BME280;25175;50.140;18.990;2023-04-09T08:26:14;99256.63;;;7.81;62.74
39491;BME280;25175;50.140;18.990;2023-04-09T08:29:18;99259.41;;;7.80;63.17
39491;BME280;25175;50.140;18.990;2023-04-09T08:32:26;99268.84;;;7.81;62.93
39491;BME280;25175;50.140;18.990;2023-04-09T08:35:31;99251.41;;;7.73;63.42
39491;BME280;25175;50.140;18.990;2023-04-09T08:38:37;99270.44;;;7.90;62.72
39491;BME280;25175;50.140;18.990;2023-04-09T08:41:42;99264.53;;;7.96;62.84
39491;BME280;25175;50.140;18.990;2023-04-09T08:44:49;99263.69;;;8.03;63.48
39491;BME280;25175;50.140;18.990;2023-04-09T08:47:56;99276.22;;;8.08;63.50
39491;BME280;25175;50.140;18.990;2023-04-09T08:51:04;99268.53;;;8.06;63.55
39491;BME280;25175;50.140;18.990;2023-04-09T08:54:08;99267.06;;;8.12;64.09
39491;BME280;25175;50.140;18.990;2023-04-09T08:57:14;99273.66;;;8.22;64.46
39491;BME280;25175;50.140;18.990;2023-04-09T09:00:18;99272.66;;;8.31;64.14
39491;BME280;25175;50.140;18.990;2023-04-09T09:03:26;99264.94;;;8.38;63.76
39491;BME280;25175;50.140;18.990;2023-04-09T09:06:32;99262.69;;;8.49;63.68
39491;BME280;25175;50.140;18.990;2023-04-09T09:09:53;99270.00;;;8.62;63.30
39491;BME280;25175;50.140;18.990;2023-04-09T09:13:15;99261.19;;;8.55;62.88
39491;BME280;25175;50.140;18.990;2023-04-09T09:16:23;99262.88;;;8.70;63.96
39491;BME280;25175;50.140;18.990;2023-04-09T09:19:31;99273.09;;;8.80;63.05
39491;BME280;25175;50.140;18.990;2023-04-09T09:22:48;99276.81;;;8.85;61.86
39491;BME280;25175;50.140;18.990;2023-04-09T09:25:56;99272.84;;;8.89;62.30
39491;BME280;25175;50.140;18.990;2023-04-09T09:29:02;99273.13;;;8.94;61.42
39491;BME280;25175;50.140;18.990;2023-04-09T09:32:12;99188.88;;;8.39;61.03
39491;BME280;25175;50.140;18.990;2023-04-09T09:35:21;99281.44;;;8.98;61.09
39491;BME280;25175;50.140;18.990;2023-04-09T09:38:26;99283.53;;;9.02;60.22
39491;BME280;25175;50.140;18.990;2023-04-09T09:41:31;99276.41;;;9.11;60.53
39491;BME280;25175;50.140;18.990;2023-04-09T09:44:35;99289.31;;;9.12;58.23
39491;BME280;25175;50.140;18.990;2023-04-09T09:47:40;99270.44;;;9.17;60.03
39491;BME280;25175;50.140;18.990;2023-04-09T09:50:50;99276.59;;;9.24;60.05
39491;BME280;25175;50.140;18.990;2023-04-09T09:53:56;99173.31;;;8.68;59.53
39491;BME280;25175;50.140;18.990;2023-04-09T09:57:03;99278.41;;;9.38;59.50
39491;BME280;25175;50.140;18.990;2023-04-09T10:00:15;99274.78;;;9.39;59.75
39491;BME280;25175;50.140;18.990;2023-04-09T10:03:28;99267.81;;;9.46;59.62
39491;BME280;25175;50.140;18.990;2023-04-09T10:06:43;99273.34;;;9.51;59.36
39491;BME280;25175;50.140;18.990;2023-04-09T10:09:49;99273.34;;;9.51;59.05
39491;BME280;25175;50.140;18.990;2023-04-09T10:12:58;99268.09;;;9.51;59.32
39491;BME280;25175;50.140;18.990;2023-04-09T10:16:03;99253.56;;;9.48;59.38
39491;BME280;25175;50.140;18.990;2023-04-09T10:19:11;99263.94;;;9.56;58.63
39491;BME280;25175;50.140;18.990;2023-04-09T10:22:22;99269.38;;;9.55;58.92
39491;BME280;25175;50.140;18.990;2023-04-09T10:25:32;99266.91;;;9.53;58.52
39491;BME280;25175;50.140;18.990;2023-04-09T10:28:37;99234.31;;;9.41;58.63
39491;BME280;25175;50.140;18.990;2023-04-09T10:31:47;99239.28;;;9.51;59.46
39491;BME280;25175;50.140;18.990;2023-04-09T10:34:56;99253.06;;;9.74;58.62
39491;BME280;25175;50.140;18.990;2023-04-09T10:38:06;99252.44;;;9.86;58.47
39491;BME280;25175;50.140;18.990;2023-04-09T10:41:14;99247.47;;;9.91;58.39
39491;BME280;25175;50.140;18.990;2023-04-09T10:44:27;99238.06;;;9.97;57.53
39491;BME280;25175;50.140;18.990;2023-04-09T10:47:42;99244.59;;;10.07;58.71
39491;BME280;25175;50.140;18.990;2023-04-09T10:50:50;99101.78;;;9.26;58.51
39491;BME280;25175;50.140;18.990;2023-04-09T10:53:59;99240.31;;;10.21;57.99
39491;BME280;25175;50.140;18.990;2023-04-09T10:57:16;99231.50;;;10.28;57.06
39491;BME280;25175;50.140;18.990;2023-04-09T11:00:26;99228.41;;;10.46;58.16
39491;BME280;25175;50.140;18.990;2023-04-09T11:03:39;99229.50;;;10.51;56.59
39491;BME280;25175;50.140;18.990;2023-04-09T11:06:51;99232.19;;;10.58;56.58
39491;BME280;25175;50.140;18.990;2023-04-09T11:10:00;99233.41;;;10.62;55.88
39491;BME280;25175;50.140;18.990;2023-04-09T11:13:05;99238.72;;;10.68;55.63
39491;BME280;25175;50.140;18.990;2023-04-09T11:16:10;99228.47;;;10.73;56.12
39491;BME280;25175;50.140;18.990;2023-04-09T11:19:15;99235.91;;;10.70;54.52
39491;BME280;25175;50.140;18.990;2023-04-09T11:22:22;99227.84;;;10.71;54.67
39491;BME280;25175;50.140;18.990;2023-04-09T11:25:31;99232.88;;;10.73;54.62
39491;BME280;25175;50.140;18.990;2023-04-09T11:28:41;99239.19;;;10.78;55.50
39491;BME280;25175;50.140;18.990;2023-04-09T11:31:46;99232.59;;;10.89;55.15
39491;BME280;25175;50.140;18.990;2023-04-09T11:34:52;99230.13;;;11.02;54.87
39491;BME280;25175;50.140;18.990;2023-04-09T11:37:59;99214.38;;;11.08;55.11
39491;BME280;25175;50.140;18.990;2023-04-09T11:41:07;99215.25;;;11.22;55.04
39491;BME280;25175;50.140;18.990;2023-04-09T11:44:13;99226.09;;;11.46;55.42
39491;BME280;25175;50.140;18.990;2023-04-09T11:47:19;99227.56;;;11.62;56.17
39491;BME280;25175;50.140;18.990;2023-04-09T11:50:25;99224.19;;;11.74;53.69
39491;BME280;25175;50.140;18.990;2023-04-09T11:53:31;99218.75;;;11.76;52.51
39491;BME280;25175;50.140;18.990;2023-04-09T11:56:39;99218.16;;;11.80;52.65
39491;BME280;25175;50.140;18.990;2023-04-09T11:59:44;99223.81;;;11.84;52.59
39491;BME280;25175;50.140;18.990;2023-04-09T12:02:50;99211.25;;;11.73;52.79
39491;BME280;25175;50.140;18.990;2023-04-09T12:06:05;99225.84;;;11.82;51.03
39491;BME280;25175;50.140;18.990;2023-04-09T12:09:10;99227.69;;;11.88;52.60
39491;BME280;25175;50.140;18.990;2023-04-09T12:12:23;99227.72;;;11.94;51.52
39491;BME280;25175;50.140;18.990;2023-04-09T12:15:31;99222.59;;;11.86;50.37
39491;BME280;25175;50.140;18.990;2023-04-09T12:18:38;99213.50;;;11.76;50.88
39491;BME280;25175;50.140;18.990;2023-04-09T12:21:47;99227.00;;;11.73;50.38
39491;BME280;25175;50.140;18.990;2023-04-09T12:24:53;99219.72;;;11.68;50.43
39491;BME280;25175;50.140;18.990;2023-04-09T12:28:00;99217.09;;;11.68;50.44
39491;BME280;25175;50.140;18.990;2023-04-09T12:31:10;99220.94;;;11.66;50.29
39491;BME280;25175;50.140;18.990;2023-04-09T12:34:15;99220.75;;;11.67;50.23
39491;BME280;25175;50.140;18.990;2023-04-09T12:37:21;99218.09;;;11.67;50.05
39491;BME280;25175;50.140;18.990;2023-04-09T12:40:25;99215.28;;;11.75;50.72
39491;BME280;25175;50.140;18.990;2023-04-09T12:43:33;99227.88;;;11.80;50.43
39491;BME280;25175;50.140;18.990;2023-04-09T12:46:38;99224.03;;;11.82;49.82
39491;BME280;25175;50.140;18.990;2023-04-09T12:49:43;99221.59;;;11.81;49.33
39491;BME280;25175;50.140;18.990;2023-04-09T12:52:50;99219.75;;;11.75;49.78
39491;BME280;25175;50.140;18.990;2023-04-09T12:55:56;99217.13;;;11.75;49.62
39491;BME280;25175;50.140;18.990;2023-04-09T12:59:04;99216.72;;;11.71;49.54
39491;BME280;25175;50.140;18.990;2023-04-09T13:02:10;99196.22;;;11.54;49.55
39491;BME280;25175;50.140;18.990;2023-04-09T13:05:15;99215.91;;;11.71;49.24
39491;BME280;25175;50.140;18.990;2023-04-09T13:08:20;99213.91;;;11.79;49.42
39491;BME280;25175;50.140;18.990;2023-04-09T13:11:25;99211.91;;;11.81;49.76
39491;BME280;25175;50.140;18.990;2023-04-09T13:14:37;99212.72;;;11.88;49.93
39491;BME280;25175;50.140;18.990;2023-04-09T13:17:41;99208.47;;;11.94;50.15
39491;BME280;25175;50.140;18.990;2023-04-09T13:20:47;99205.84;;;11.94;49.63
39491;BME280;25175;50.140;18.990;2023-04-09T13:23:51;99207.06;;;11.98;50.49
39491;BME280;25175;50.140;18.990;2023-04-09T13:26:57;99206.72;;;12.01;49.11
39491;BME280;25175;50.140;18.990;2023-04-09T13:30:05;99204.91;;;12.08;49.37
39491;BME280;25175;50.140;18.990;2023-04-09T13:33:11;99201.84;;;12.11;49.00
39491;BME280;25175;50.140;18.990;2023-04-09T13:36:16;99199.03;;;12.12;49.45
39491;BME280;25175;50.140;18.990;2023-04-09T13:39:22;99195.19;;;12.15;49.32
39491;BME280;25175;50.140;18.990;2023-04-09T13:42:27;99202.06;;;12.16;49.26
39491;BME280;25175;50.140;18.990;2023-04-09T13:45:36;99197.81;;;12.15;48.55
39491;BME280;25175;50.140;18.990;2023-04-09T13:48:42;99199.44;;;12.16;48.64
39491;BME280;25175;50.140;18.990;2023-04-09T13:51:48;99207.13;;;12.17;49.50
39491;BME280;25175;50.140;18.990;2023-04-09T13:54:55;99196.81;;;12.16;48.22
39491;BME280;25175;50.140;18.990;2023-04-09T13:58:00;99202.69;;;12.11;48.68
39491;BME280;25175;50.140;18.990;2023-04-09T14:01:08;99201.84;;;12.11;48.04
39491;BME280;25175;50.140;18.990;2023-04-09T14:04:14;99192.53;;;12.08;47.81
39491;BME280;25175;50.140;18.990;2023-04-09T14:07:19;99206.91;;;12.06;47.38
39491;BME280;25175;50.140;18.990;2023-04-09T14:10:24;99201.03;;;12.04;46.62
39491;BME280;25175;50.140;18.990;2023-04-09T14:13:29;99200.81;;;11.99;46.35
39491;BME280;25175;50.140;18.990;2023-04-09T14:16:37;99192.34;;;12.10;46.45
39491;BME280;25175;50.140;18.990;2023-04-09T14:19:41;99189.75;;;12.16;45.61
39491;BME280;25175;50.140;18.990;2023-04-09T14:22:47;99189.53;;;12.18;44.21
39491;BME280;25175;50.140;18.990;2023-04-09T14:25:51;99195.38;;;12.13;43.61
39491;BME280;25175;50.140;18.990;2023-04-09T14:28:57;99180.81;;;12.11;43.57
39491;BME280;25175;50.140;18.990;2023-04-09T14:32:05;99185.91;;;12.19;43.26
39491;BME280;25175;50.140;18.990;2023-04-09T14:35:10;99177.59;;;12.22;43.08
39491;BME280;25175;50.140;18.990;2023-04-09T14:38:15;99173.75;;;12.24;42.58
39491;BME280;25175;50.140;18.990;2023-04-09T14:41:20;99172.94;;;12.24;42.72
39491;BME280;25175;50.140;18.990;2023-04-09T14:44:24;99163.81;;;12.13;42.94
39491;BME280;25175;50.140;18.990;2023-04-09T14:47:34;99167.44;;;12.06;42.36
39491;BME280;25175;50.140;18.990;2023-04-09T14:50:38;99170.88;;;12.00;43.06
39491;BME280;25175;50.140;18.990;2023-04-09T14:53:43;99179.53;;;11.94;42.51
39491;BME280;25175;50.140;18.990;2023-04-09T14:56:48;99165.78;;;11.85;42.88
39491;BME280;25175;50.140;18.990;2023-04-09T14:59:53;99168.63;;;11.90;43.72
39491;BME280;25175;50.140;18.990;2023-04-09T15:03:00;99168.63;;;11.97;43.76
39491;BME280;25175;50.140;18.990;2023-04-09T15:06:06;99165.03;;;12.04;43.03
39491;BME280;25175;50.140;18.990;2023-04-09T15:09:11;99164.63;;;12.14;43.57
39491;BME280;25175;50.140;18.990;2023-04-09T15:12:16;99158.97;;;12.23;43.36
39491;BME280;25175;50.140;18.990;2023-04-09T15:15:21;99157.38;;;12.29;42.56
39491;BME280;25175;50.140;18.990;2023-04-09T15:18:29;99153.94;;;12.35;42.06
39491;BME280;25175;50.140;18.990;2023-04-09T15:21:34;99151.69;;;12.38;42.21
39491;BME280;25175;50.140;18.990;2023-04-09T15:24:40;99039.34;;;11.67;42.67
39491;BME280;25175;50.140;18.990;2023-04-09T15:27:44;99160.59;;;12.57;42.42
39491;BME280;25175;50.140;18.990;2023-04-09T15:30:50;99152.88;;;12.68;41.88
39491;BME280;25175;50.140;18.990;2023-04-09T15:33:57;99165.00;;;12.76;41.52
39491;BME280;25175;50.140;18.990;2023-04-09T15:37:02;99158.53;;;12.85;41.99
39491;BME280;25175;50.140;18.990;2023-04-09T15:40:09;99154.88;;;12.86;42.33
39491;BME280;25175;50.140;18.990;2023-04-09T15:43:15;99144.13;;;12.81;41.48
39491;BME280;25175;50.140;18.990;2023-04-09T15:46:20;99163.41;;;12.68;42.21
39491;BME280;25175;50.140;18.990;2023-04-09T15:49:27;99158.34;;;12.60;41.98
39491;BME280;25175;50.140;18.990;2023-04-09T15:52:32;99165.88;;;12.57;42.69
39491;BME280;25175;50.140;18.990;2023-04-09T15:55:37;99157.97;;;12.50;42.79
39491;BME280;25175;50.140;18.990;2023-04-09T15:58:42;99158.97;;;12.43;44.59
39491;BME280;25175;50.140;18.990;2023-04-09T16:01:47;99174.34;;;12.33;44.01
39491;BME280;25175;50.140;18.990;2023-04-09T16:04:54;99168.50;;;12.18;44.22
39491;BME280;25175;50.140;18.990;2023-04-09T16:07:59;99180.00;;;12.04;44.73
39491;BME280;25175;50.140;18.990;2023-04-09T16:11:05;99168.81;;;11.89;45.80
39491;BME280;25175;50.140;18.990;2023-04-09T16:14:11;99153.19;;;11.74;45.79
39491;BME280;25175;50.140;18.990;2023-04-09T16:17:17;99180.13;;;11.83;45.49
39491;BME280;25175;50.140;18.990;2023-04-09T16:20:24;99178.69;;;11.74;45.50
39491;BME280;25175;50.140;18.990;2023-04-09T16:23:29;99181.31;;;11.67;45.83
39491;BME280;25175;50.140;18.990;2023-04-09T16:26:35;99176.59;;;11.50;45.86
39491;BME280;25175;50.140;18.990;2023-04-09T16:29:39;99179.06;;;11.58;46.54